createdAt,value
2018-12-07T00:01:25.163Z,11.15
2018-12-07T00:03:52.560Z,11.12
2018-12-07T00:06:20.026Z,11.08
2018-12-07T00:08:47.448Z,11.06
2018-12-07T00:11:14.943Z,11.05
2018-12-07T00:13:42.372Z,11.03
2018-12-07T00:16:09.764Z,11.02
2018-12-07T00:18:37.191Z,11.04
2018-12-07T00:21:04.624Z,11.07
2018-12-07T00:23:32.020Z,11.10
2018-12-07T00:25:59.476Z,11.10
2018-12-07T00:28:27.222Z,11.09
2018-12-07T00:30:54.606Z,11.04
2018-12-07T00:33:22.029Z,10.90
2018-12-07T00:35:49.444Z,10.87
2018-12-07T00:38:16.862Z,10.88
2018-12-07T00:40:44.256Z,10.87
2018-12-07T00:43:11.713Z,10.85
2018-12-07T00:45:39.116Z,10.87
2018-12-07T00:48:06.550Z,10.85
2018-12-07T00:50:33.967Z,10.85
2018-12-07T00:53:01.386Z,10.82
2018-12-07T00:55:36.493Z,10.82
2018-12-07T00:58:03.910Z,10.81
2018-12-07T01:00:31.323Z,10.82
2018-12-07T01:02:58.751Z,10.86
2018-12-07T01:05:26.165Z,10.90
2018-12-07T01:07:53.576Z,10.95
2018-12-07T01:10:21.575Z,10.97
2018-12-07T01:12:48.992Z,11.02
2018-12-07T01:15:16.469Z,11.04
2018-12-07T01:17:43.896Z,11.03
2018-12-07T01:20:11.290Z,11.02
2018-12-07T01:22:38.709Z,11.02
2018-12-07T01:25:06.123Z,11.01
2018-12-07T01:27:33.529Z,10.97
2018-12-07T01:30:00.928Z,10.93
2018-12-07T01:32:28.355Z,10.93
2018-12-07T01:34:55.817Z,10.89
2018-12-07T01:37:23.228Z,10.87
2018-12-07T01:39:50.621Z,10.83
2018-12-07T01:42:18.106Z,10.81
2018-12-07T01:44:45.495Z,10.77
2018-12-07T01:47:12.917Z,10.76
2018-12-07T01:49:40.320Z,10.74
2018-12-07T01:52:07.710Z,10.73
2018-12-07T01:54:35.119Z,10.67
2018-12-07T01:57:02.535Z,10.68
2018-12-07T01:59:29.952Z,10.67
2018-12-07T02:01:57.408Z,10.66
2018-12-07T02:04:24.820Z,10.63
2018-12-07T02:06:52.514Z,10.59
2018-12-07T02:09:19.929Z,10.58
2018-12-07T02:11:47.330Z,10.55
2018-12-07T02:14:14.755Z,10.60
2018-12-07T02:16:42.229Z,10.60
2018-12-07T02:19:09.637Z,10.67
2018-12-07T02:21:37.056Z,10.71
2018-12-07T02:24:04.499Z,10.71
2018-12-07T02:26:31.927Z,10.72
2018-12-07T02:28:59.322Z,10.75
2018-12-07T02:31:26.768Z,10.76
2018-12-07T02:33:54.159Z,10.77
2018-12-07T02:36:21.629Z,10.77
2018-12-07T02:38:49.048Z,10.75
2018-12-07T02:41:16.503Z,10.75
2018-12-07T02:43:43.904Z,10.73
2018-12-07T02:46:11.331Z,10.70
2018-12-07T02:48:38.756Z,10.71
2018-12-07T02:51:06.140Z,10.69
2018-12-07T02:53:33.577Z,10.66
2018-12-07T02:56:01.026Z,10.54
2018-12-07T02:58:28.422Z,10.45
2018-12-07T03:00:55.852Z,10.43
2018-12-07T03:03:23.302Z,10.44
2018-12-07T03:05:50.700Z,10.40
2018-12-07T03:08:18.100Z,10.38
2018-12-07T03:10:45.502Z,10.32
2018-12-07T03:13:12.908Z,10.32
2018-12-07T03:15:40.315Z,10.32
2018-12-07T03:18:07.733Z,10.23
2018-12-07T03:20:35.184Z,10.11
2018-12-07T03:23:02.603Z,10.06
2018-12-07T03:25:30.199Z,10.01
2018-12-07T03:27:58.356Z,10.00
2018-12-07T03:30:25.828Z,9.98
2018-12-07T03:32:53.230Z,9.99
2018-12-07T03:35:20.727Z,10.00
2018-12-07T03:37:48.179Z,9.98
2018-12-07T03:40:15.782Z,9.92
2018-12-07T03:42:43.184Z,9.87
2018-12-07T03:45:10.671Z,9.86
2018-12-07T03:47:38.173Z,9.88
2018-12-07T03:50:05.571Z,9.90
2018-12-07T03:52:32.970Z,9.95
2018-12-07T03:55:00.363Z,9.95
2018-12-07T03:57:28.639Z,9.97
2018-12-07T03:59:56.040Z,9.98
2018-12-07T04:02:23.447Z,9.96
2018-12-07T04:04:50.859Z,9.96
2018-12-07T04:07:18.299Z,9.93
2018-12-07T04:09:45.727Z,9.90
2018-12-07T04:12:13.141Z,9.97
2018-12-07T04:14:40.554Z,9.98
2018-12-07T04:17:07.994Z,9.93
2018-12-07T04:19:35.409Z,9.89
2018-12-07T04:22:03.679Z,9.81
2018-12-07T04:24:31.430Z,9.74
2018-12-07T04:26:58.831Z,9.71
2018-12-07T04:29:26.284Z,9.76
2018-12-07T04:31:53.701Z,9.80
2018-12-07T04:34:21.187Z,9.80
2018-12-07T04:36:48.623Z,9.74
2018-12-07T04:39:16.100Z,9.71
2018-12-07T04:41:44.054Z,9.70
2018-12-07T04:44:11.451Z,9.67
2018-12-07T04:46:38.883Z,9.65
2018-12-07T04:49:06.299Z,9.65
2018-12-07T04:51:33.879Z,9.56
2018-12-07T04:54:01.297Z,9.47
2018-12-07T04:56:28.720Z,9.46
2018-12-07T04:58:56.213Z,9.42
2018-12-07T05:01:23.621Z,9.37
2018-12-07T05:03:51.048Z,9.38
2018-12-07T05:06:18.458Z,9.40
2018-12-07T05:08:45.927Z,9.43
2018-12-07T05:11:13.345Z,9.45
2018-12-07T05:13:40.793Z,9.50
2018-12-07T05:16:08.283Z,9.51
2018-12-07T05:18:35.697Z,9.53
2018-12-07T05:21:03.136Z,9.62
2018-12-07T05:23:30.555Z,9.62
2018-12-07T05:25:58.093Z,9.64
2018-12-07T05:28:25.492Z,9.71
2018-12-07T05:30:52.948Z,9.77
2018-12-07T05:33:20.369Z,9.78
2018-12-07T05:35:47.757Z,9.80
2018-12-07T05:38:15.877Z,9.73
2018-12-07T05:40:43.353Z,9.74
2018-12-07T05:43:10.776Z,9.73
2018-12-07T05:45:38.215Z,9.67
2018-12-07T05:48:06.299Z,9.63
2018-12-07T05:50:33.795Z,9.50
2018-12-07T05:53:01.245Z,9.38
2018-12-07T05:55:28.681Z,9.30
2018-12-07T05:57:56.075Z,9.34
2018-12-07T06:00:23.490Z,9.37
2018-12-07T06:02:51.884Z,9.36
2018-12-07T06:05:19.293Z,9.43
2018-12-07T06:07:46.684Z,9.45
2018-12-07T06:10:14.092Z,9.50
2018-12-07T06:12:41.649Z,9.49
2018-12-07T06:15:09.055Z,9.44
2018-12-07T06:17:37.520Z,9.56
2018-12-07T06:20:04.930Z,9.63
2018-12-07T06:22:32.517Z,9.64
2018-12-07T06:25:00.539Z,9.74
2018-12-07T06:27:27.931Z,9.74
2018-12-07T06:29:55.350Z,9.78
2018-12-07T06:32:23.496Z,9.80
2018-12-07T06:34:50.917Z,9.77
2018-12-07T06:37:19.093Z,9.82
2018-12-07T06:39:46.527Z,9.85
2018-12-07T06:42:13.935Z,9.90
2018-12-07T06:44:41.345Z,9.92
2018-12-07T06:47:08.886Z,9.91
2018-12-07T06:49:36.294Z,9.93
2018-12-07T06:52:03.809Z,9.94
2018-12-07T06:54:31.360Z,9.92
2018-12-07T06:56:58.765Z,9.93
2018-12-07T06:59:27.141Z,9.90
2018-12-07T07:01:54.552Z,9.87
2018-12-07T07:04:21.984Z,9.85
2018-12-07T07:06:49.513Z,9.87
2018-12-07T07:09:16.932Z,9.89
2018-12-07T07:11:44.364Z,9.96
2018-12-07T07:14:11.853Z,10.00
2018-12-07T07:16:40.963Z,9.97
2018-12-07T07:19:08.465Z,10.04
2018-12-07T07:21:35.947Z,10.05
2018-12-07T07:24:03.367Z,10.06
2018-12-07T07:26:30.765Z,10.08
2018-12-07T07:28:58.538Z,10.12
2018-12-07T07:31:26.001Z,10.15
2018-12-07T07:33:53.393Z,10.21
2018-12-07T07:36:20.861Z,10.24
2018-12-07T07:38:48.412Z,10.22
2018-12-07T07:41:15.932Z,10.23
2018-12-07T07:43:43.390Z,10.26
2018-12-07T07:46:11.275Z,10.31
2018-12-07T07:48:38.676Z,10.33
2018-12-07T07:51:06.229Z,10.37
2018-12-07T07:53:33.643Z,10.43
2018-12-07T07:56:01.092Z,10.46
2018-12-07T07:58:28.507Z,10.55
2018-12-07T08:00:55.959Z,10.59
2018-12-07T08:03:23.401Z,10.65
2018-12-07T08:05:50.947Z,10.70
2018-12-07T08:08:18.359Z,10.74
2018-12-07T08:10:46.093Z,10.76
2018-12-07T08:13:13.530Z,10.84
2018-12-07T08:15:40.939Z,10.92
2018-12-07T08:18:08.447Z,10.94
2018-12-07T08:20:35.877Z,10.98
2018-12-07T08:23:03.305Z,11.00
2018-12-07T08:25:30.763Z,11.08
2018-12-07T08:27:58.336Z,11.26
2018-12-07T08:30:25.847Z,11.75
2018-12-07T08:32:53.345Z,13.08
2018-12-07T08:35:20.753Z,13.10
2018-12-07T08:37:48.322Z,12.85
2018-12-07T08:40:15.737Z,12.71
2018-12-07T08:42:43.532Z,12.63
2018-12-07T08:45:11.017Z,12.50
2018-12-07T08:47:39.216Z,12.43
2018-12-07T08:50:06.650Z,12.29
2018-12-07T08:52:34.143Z,12.22
2018-12-07T08:55:01.599Z,12.43
2018-12-07T08:57:29.035Z,14.00
2018-12-07T08:59:56.459Z,15.11
2018-12-07T09:02:24.914Z,16.41
2018-12-07T09:04:52.304Z,18.07
2018-12-07T09:07:19.758Z,18.49
2018-12-07T09:09:47.288Z,19.04
2018-12-07T09:12:14.696Z,18.43
2018-12-07T09:14:43.174Z,17.30
2018-12-07T09:17:10.576Z,16.38
2018-12-07T09:19:37.999Z,16.41
2018-12-07T09:22:05.395Z,17.35
2018-12-07T09:24:32.817Z,18.54
2018-12-07T09:27:00.215Z,19.62
2018-12-07T09:29:27.652Z,19.48
2018-12-07T09:31:55.947Z,19.64
2018-12-07T09:34:23.482Z,20.17
2018-12-07T09:36:51.570Z,20.69
2018-12-07T09:39:18.974Z,21.00
2018-12-07T09:41:46.387Z,21.27
2018-12-07T09:44:13.520Z,21.88
2018-12-07T09:46:40.927Z,22.18
2018-12-07T09:49:07.882Z,22.44
2018-12-07T09:51:34.876Z,22.62
2018-12-07T09:54:01.852Z,22.61
2018-12-07T09:56:28.811Z,22.58
2018-12-07T09:58:55.856Z,22.64
2018-12-07T10:01:22.938Z,22.40
2018-12-07T10:03:50.228Z,22.55
2018-12-07T10:06:17.976Z,22.64
2018-12-07T10:08:45.724Z,22.39
2018-12-07T10:11:13.135Z,22.39
2018-12-07T10:13:40.549Z,22.13
2018-12-07T10:16:08.898Z,21.75
2018-12-07T10:18:36.310Z,21.53
2018-12-07T10:21:03.830Z,21.25
2018-12-07T10:23:31.342Z,19.28
2018-12-07T10:25:58.759Z,17.36
2018-12-07T10:28:27.328Z,17.43
2018-12-07T10:30:54.745Z,17.26
2018-12-07T10:33:22.169Z,18.00
2018-12-07T10:35:49.799Z,18.62
2018-12-07T10:38:18.835Z,18.85
2018-12-07T10:40:44.877Z,19.07
2018-12-07T10:43:12.416Z,18.97
2018-12-07T10:45:39.830Z,19.11
2018-12-07T10:48:07.750Z,18.99
2018-12-07T10:50:35.155Z,19.78
2018-12-07T10:53:02.970Z,19.24
2018-12-07T10:55:30.564Z,17.59
2018-12-07T10:57:58.062Z,16.52
2018-12-07T11:00:31.341Z,15.66
2018-12-07T11:03:04.579Z,14.91
2018-12-07T11:05:38.679Z,14.49
2018-12-07T11:08:13.548Z,14.41
2018-12-07T11:10:47.566Z,15.04
2018-12-07T11:13:20.552Z,15.16
2018-12-07T11:15:53.625Z,15.97
2018-12-07T11:18:27.329Z,17.49
2018-12-07T11:21:00.307Z,18.20
2018-12-07T11:26:28.449Z,20.28
2018-12-07T11:29:01.578Z,20.21
2018-12-07T11:31:34.697Z,20.68
2018-12-07T11:34:02.261Z,20.70
2018-12-07T11:36:29.678Z,21.62
2018-12-07T11:38:57.200Z,22.25
2018-12-07T11:41:24.795Z,22.01
2018-12-07T11:43:52.252Z,22.62
2018-12-07T11:46:20.258Z,22.50
2018-12-07T11:48:47.676Z,22.56
2018-12-07T11:51:15.171Z,22.76
2018-12-07T11:53:42.604Z,23.08
2018-12-07T11:56:10.021Z,23.22
2018-12-07T11:58:37.482Z,22.61
2018-12-07T12:01:04.879Z,22.74
2018-12-07T12:03:32.412Z,22.89
2018-12-07T12:05:59.824Z,22.95
2018-12-07T12:08:27.276Z,22.82
2018-12-07T12:10:54.712Z,22.62
2018-12-07T12:13:23.081Z,22.51
2018-12-07T12:15:50.531Z,22.72
2018-12-07T12:18:18.232Z,22.71
2018-12-07T12:20:45.519Z,22.71
2018-12-07T12:23:12.936Z,23.01
2018-12-07T12:25:40.356Z,23.21
2018-12-07T12:28:08.533Z,23.38
2018-12-07T12:30:36.054Z,23.00
2018-12-07T12:33:03.556Z,22.82
2018-12-07T12:35:30.972Z,21.17
2018-12-07T12:37:58.394Z,20.38
2018-12-07T12:40:25.858Z,20.35
2018-12-07T12:42:54.129Z,20.48
2018-12-07T12:45:22.352Z,21.53
2018-12-07T12:47:49.818Z,22.20
2018-12-07T12:50:22.934Z,22.84
2018-12-07T12:52:50.783Z,23.25
2018-12-07T12:55:18.256Z,23.51
2018-12-07T12:57:46.259Z,24.10
2018-12-07T13:00:13.665Z,24.22
2018-12-07T13:02:41.065Z,24.70
2018-12-07T13:05:08.500Z,25.23
2018-12-07T13:07:35.460Z,25.16
2018-12-07T13:10:02.875Z,24.49
2018-12-07T13:12:30.281Z,24.34
2018-12-07T13:14:57.864Z,25.42
2018-12-07T13:17:25.389Z,25.70
2018-12-07T13:19:53.203Z,24.77
2018-12-07T13:22:20.727Z,24.54
2018-12-07T13:24:48.172Z,22.63
2018-12-07T13:27:15.585Z,19.49
2018-12-07T13:29:43.012Z,17.61
2018-12-07T13:32:10.514Z,16.95
2018-12-07T13:34:37.916Z,16.47
2018-12-07T13:37:05.398Z,16.10
2018-12-07T13:39:32.959Z,16.13
2018-12-07T13:42:00.388Z,15.83
2018-12-07T13:44:27.938Z,15.72
2018-12-07T13:46:55.281Z,15.50
2018-12-07T13:49:22.831Z,15.57
2018-12-07T13:51:50.183Z,15.49
2018-12-07T13:54:17.823Z,15.30
2018-12-07T13:56:45.128Z,15.21
2018-12-07T13:59:12.868Z,15.18
2018-12-07T14:01:40.053Z,15.12
2018-12-07T14:04:07.530Z,15.22
2018-12-07T14:06:35.041Z,15.21
2018-12-07T14:09:02.550Z,15.45
2018-12-07T14:11:30.067Z,15.48
2018-12-07T14:13:57.424Z,16.48
2018-12-07T14:16:24.987Z,16.45
2018-12-07T14:18:55.371Z,15.75
2018-12-07T14:21:22.817Z,15.36
2018-12-07T14:23:50.335Z,15.25
2018-12-07T14:26:17.604Z,15.10
2018-12-07T14:28:45.219Z,14.88
2018-12-07T14:31:12.622Z,14.83
2018-12-07T14:33:40.971Z,14.74
2018-12-07T14:36:08.363Z,14.64
2018-12-07T14:38:36.801Z,14.56
2018-12-07T14:41:05.362Z,14.53
2018-12-07T14:43:32.791Z,14.43
2018-12-07T14:46:00.477Z,14.39
2018-12-07T14:48:28.005Z,14.36
2018-12-07T14:50:55.270Z,14.30
2018-12-07T14:53:22.826Z,14.14
2018-12-07T14:55:51.190Z,14.04
2018-12-07T14:58:18.705Z,13.91
2018-12-07T15:00:46.173Z,13.75
2018-12-07T15:03:13.540Z,13.71
2018-12-07T15:05:41.133Z,13.67
2018-12-07T15:08:09.534Z,13.68
2018-12-07T15:10:36.814Z,13.67
2018-12-07T15:13:04.448Z,13.68
2018-12-07T15:15:31.769Z,13.71
2018-12-07T15:17:59.242Z,13.69
2018-12-07T15:20:26.885Z,13.65
2018-12-07T15:22:55.213Z,13.65
2018-12-07T15:25:22.614Z,13.62
2018-12-07T15:27:50.375Z,13.61
2018-12-07T15:30:17.881Z,13.57
2018-12-07T15:32:45.296Z,13.59
2018-12-07T15:35:12.744Z,13.56
2018-12-07T15:37:40.157Z,13.57
2018-12-07T15:40:07.706Z,13.58
2018-12-07T15:42:34.992Z,13.58
2018-12-07T15:45:02.633Z,13.60
2018-12-07T15:47:30.259Z,13.60
2018-12-07T15:49:57.679Z,13.61
2018-12-07T15:52:25.123Z,13.63
2018-12-07T15:54:52.805Z,13.66
2018-12-07T15:57:20.076Z,13.75
2018-12-07T15:59:47.540Z,13.81
2018-12-07T16:02:15.050Z,13.79
2018-12-07T16:08:24.871Z,13.60
2018-12-07T16:10:53.058Z,13.59
2018-12-07T16:13:21.006Z,13.64
2018-12-07T16:15:52.259Z,13.72
2018-12-07T16:18:24.170Z,13.79
2018-12-07T16:20:54.887Z,13.84
2018-12-07T16:23:24.255Z,13.81
2018-12-07T16:25:51.775Z,13.80
2018-12-07T16:28:21.337Z,13.81
2018-12-07T16:30:50.154Z,13.82
2018-12-07T16:33:21.020Z,13.82
2018-12-07T16:35:49.243Z,13.74
2018-12-07T16:38:18.108Z,13.71
2018-12-07T16:40:48.508Z,13.70
2018-12-07T16:43:17.595Z,13.63
2018-12-07T16:45:48.235Z,13.60
2018-12-07T16:48:16.774Z,13.59
2018-12-07T16:50:47.988Z,13.54
2018-12-07T16:53:17.725Z,13.41
2018-12-07T16:55:49.299Z,13.32
2018-12-07T16:58:16.934Z,13.22
2018-12-07T17:00:45.943Z,13.17
2018-12-07T17:03:20.061Z,13.12
2018-12-07T17:05:52.919Z,13.04
2018-12-07T17:08:23.190Z,12.97
2018-12-07T17:10:53.525Z,12.98
2018-12-07T17:13:22.001Z,12.89
2018-12-07T17:15:50.232Z,12.88
2018-12-07T17:18:17.956Z,12.89
2018-12-07T17:20:49.899Z,12.89
2018-12-07T17:26:06.068Z,12.98
2018-12-07T17:31:28.481Z,13.02
2018-12-07T17:33:56.635Z,13.03
2018-12-07T17:36:24.009Z,13.05
2018-12-07T17:38:52.376Z,13.01
2018-12-07T17:41:20.306Z,13.01
2018-12-07T17:43:47.719Z,12.98
2018-12-07T17:46:15.803Z,13.03
2018-12-07T17:48:43.650Z,12.99
2018-12-07T17:51:11.358Z,12.96
2018-12-07T17:53:38.807Z,12.93
2018-12-07T17:56:06.322Z,12.85
2018-12-07T17:58:34.140Z,12.75
2018-12-07T18:01:01.583Z,12.68
2018-12-07T18:03:29.091Z,12.56
2018-12-07T18:05:56.809Z,12.46
2018-12-07T18:08:25.821Z,12.44
2018-12-07T18:10:53.338Z,12.39
2018-12-07T18:13:20.816Z,12.38
2018-12-07T18:15:48.638Z,12.41
2018-12-07T18:18:16.130Z,12.39
2018-12-07T18:20:43.952Z,12.35
2018-12-07T18:23:11.770Z,12.35
2018-12-07T18:25:40.070Z,12.25
2018-12-07T18:28:07.329Z,12.28
2018-12-07T18:30:34.934Z,12.29
2018-12-07T18:33:02.379Z,12.32
2018-12-07T18:35:29.850Z,12.35
2018-12-07T18:37:58.145Z,12.37
2018-12-07T18:40:26.593Z,12.38
2018-12-07T18:42:55.105Z,12.41
2018-12-07T18:45:23.780Z,12.40
2018-12-07T18:47:51.631Z,12.37
2018-12-07T18:50:19.187Z,12.32
2018-12-07T18:52:46.819Z,12.30
2018-12-07T18:55:14.605Z,12.26
2018-12-07T18:57:42.690Z,12.21
2018-12-07T19:00:11.164Z,12.19
2018-12-07T19:02:38.878Z,12.16
2018-12-07T19:05:07.132Z,12.18
2018-12-07T19:07:34.506Z,12.22
2018-12-07T19:10:01.819Z,12.28
2018-12-07T19:12:29.661Z,12.30
2018-12-07T19:14:56.960Z,12.32
2018-12-07T19:17:24.335Z,12.24
2018-12-07T19:19:51.863Z,12.17
2018-12-07T19:22:19.455Z,12.02
2018-12-07T19:24:46.795Z,12.00
2018-12-07T19:27:14.516Z,12.00
2018-12-07T19:29:41.850Z,11.93
2018-12-07T19:32:09.167Z,11.90
2018-12-07T19:34:36.613Z,11.87
2018-12-07T19:37:04.256Z,11.77
2018-12-07T19:39:31.458Z,11.63
2018-12-07T19:41:59.060Z,11.53
2018-12-07T19:44:27.640Z,11.34
2018-12-07T19:46:55.301Z,11.35
2018-12-07T19:49:25.866Z,11.35
2018-12-07T19:51:53.494Z,11.32
2018-12-07T19:54:21.278Z,11.29
2018-12-07T19:56:49.914Z,11.25
2018-12-07T19:59:17.761Z,11.17
2018-12-07T20:01:45.821Z,11.11
2018-12-07T20:04:15.320Z,11.02
2018-12-07T20:06:42.789Z,11.05
2018-12-07T20:09:10.127Z,10.98
2018-12-07T20:11:41.119Z,11.00
2018-12-07T20:14:08.725Z,11.04
2018-12-07T20:16:37.919Z,11.06
2018-12-07T20:19:05.430Z,10.98
2018-12-07T20:21:32.776Z,10.90
2018-12-07T20:24:06.123Z,10.92
2018-12-07T20:26:34.220Z,11.03
2018-12-07T20:31:39.432Z,11.06
2018-12-07T20:34:10.790Z,11.05
2018-12-07T20:36:38.725Z,11.17
2018-12-07T20:39:06.108Z,11.21
2018-12-07T20:41:33.369Z,11.22
2018-12-07T20:44:01.933Z,11.19
2018-12-07T20:46:29.300Z,11.14
2018-12-07T20:48:56.696Z,11.19
2018-12-07T20:51:26.307Z,11.13
2018-12-07T20:53:52.115Z,11.07
2018-12-07T20:56:19.580Z,11.10
2018-12-07T20:58:47.035Z,11.09
2018-12-07T21:01:14.491Z,11.14
2018-12-07T21:07:20.468Z,11.48
2018-12-07T21:09:47.869Z,11.33
2018-12-07T21:12:20.036Z,11.14
2018-12-07T21:14:47.780Z,11.02
2018-12-07T21:17:15.885Z,10.95
2018-12-07T21:19:44.358Z,10.94
2018-12-07T21:22:11.728Z,10.96
2018-12-07T21:24:39.483Z,10.99
2018-12-07T21:27:08.693Z,10.93
2018-12-07T21:29:45.768Z,10.87
2018-12-07T21:32:13.443Z,10.77
2018-12-07T21:37:38.638Z,10.90
2018-12-07T21:40:09.366Z,10.70
2018-12-07T21:42:36.993Z,10.56
2018-12-07T21:45:04.299Z,10.49
2018-12-07T21:47:51.077Z,10.38
2018-12-07T21:50:19.750Z,10.18
2018-12-07T21:52:47.319Z,10.02
2018-12-07T21:55:14.754Z,9.90
2018-12-07T21:57:42.090Z,9.70
2018-12-07T22:00:09.543Z,9.53
2018-12-07T22:02:37.495Z,9.45
2018-12-07T22:05:04.661Z,9.47
2018-12-07T22:07:32.366Z,9.57
2018-12-07T22:09:59.486Z,9.64
2018-12-07T22:12:26.990Z,9.71
2018-12-07T22:14:54.426Z,9.81
2018-12-07T22:17:22.028Z,9.73
2018-12-07T22:19:49.292Z,9.50
2018-12-07T22:22:17.023Z,9.41
2018-12-07T22:24:44.201Z,9.36
2018-12-07T22:27:11.836Z,9.21
2018-12-07T22:29:39.075Z,9.10
2018-12-07T22:32:06.630Z,9.08
2018-12-07T22:34:34.728Z,8.98
2018-12-07T22:37:02.319Z,8.94
2018-12-07T22:39:29.791Z,8.96
2018-12-07T22:41:57.210Z,8.93
2018-12-07T22:44:24.555Z,8.86
2018-12-07T22:46:52.300Z,8.93
2018-12-07T22:49:19.754Z,9.04
2018-12-07T22:51:47.184Z,9.12
2018-12-07T22:54:14.613Z,9.15
2018-12-07T22:56:42.135Z,9.16
2018-12-07T22:59:09.607Z,9.17
2018-12-07T23:01:38.093Z,9.16
2018-12-07T23:04:06.406Z,9.15
2018-12-07T23:06:33.856Z,9.10
2018-12-07T23:09:01.379Z,9.08
2018-12-07T23:11:29.130Z,9.13
2018-12-07T23:13:56.528Z,9.11
2018-12-07T23:16:24.735Z,9.08
2018-12-07T23:18:52.141Z,9.10
2018-12-07T23:21:19.548Z,9.18
2018-12-07T23:23:46.926Z,9.17
2018-12-07T23:26:14.344Z,9.21
2018-12-07T23:28:41.762Z,9.24
2018-12-07T23:31:09.841Z,9.31
2018-12-07T23:33:37.278Z,9.44
2018-12-07T23:36:05.596Z,9.29
2018-12-07T23:38:34.275Z,9.12
2018-12-07T23:41:01.691Z,9.02
2018-12-07T23:43:29.301Z,9.08
2018-12-07T23:45:56.703Z,9.14
2018-12-07T23:48:24.246Z,8.94
2018-12-07T23:50:51.759Z,8.65
2018-12-07T23:53:19.166Z,8.66
2018-12-07T23:55:46.624Z,8.79
2018-12-07T23:58:14.030Z,8.85
